| time (UTC) | temp C | wind direction | speed KPH | gust KPH | rain 1hr cm | rain 24hr cm | rain mn cm | humidity % | barometer mb |
| 20260508050024 | 12 | 5 | 0.0 | 3.2 | 0.00 | 2.95 | 0.00 | 91 | 1013.7 |
| 20260508045503 | 12 | 5 | 0.0 | 0.0 | 0.00 | 2.95 | 0.00 | 91 | 1013.8 |
| 20260508045004 | 12 | 5 | 0.0 | 0.0 | 0.00 | 2.95 | 0.00 | 91 | 1013.6 |
| 20260508044518 | 12 | 5 | 0.0 | 3.2 | 0.00 | 2.95 | 0.00 | 91 | 1013.7 |
| 20260508044007 | 12 | 5 | 0.0 | 3.2 | 0.00 | 2.95 | 0.00 | 91 | 1013.7 |
| 20260508043507 | 12 | 329 | 0.0 | 0.0 | 0.00 | 2.95 | 0.00 | 91 | 1013.7 |
| 20260508043023 | 12 | 329 | 0.0 | 3.2 | 0.00 | 2.95 | 0.00 | 91 | 1013.7 |
| 20260508042506 | 12 | 329 | 0.0 | 3.2 | 0.00 | 2.95 | 0.00 | 91 | 1013.5 |
| 20260508042006 | 12 | 19 | 0.0 | 3.2 | 0.00 | 2.95 | 0.00 | 91 | 1013.5 |
| 20260508041523 | 12 | 19 | 0.0 | 3.2 | 0.00 | 2.95 | 0.00 | 91 | 1013.5 |
| 20260508041008 | 12 | 19 | 0.0 | 3.2 | 0.00 | 2.95 | 0.00 | 91 | 1013.5 |
| 20260508040510 | 12 | 19 | 0.0 | 0.0 | 0.00 | 2.95 | 0.00 | 91 | 1013.5 |
| 20260508040026 | 12 | 19 | 0.0 | 1.6 | 0.00 | 2.95 | 0.00 | 91 | 1013.5 |
| 20260508035509 | 12 | 19 | 0.0 | 3.2 | 0.00 | 2.95 | 2.95 | 91 | 1013.4 |
| 20260508035009 | 12 | 19 | 0.0 | 3.2 | 0.00 | 2.95 | 2.95 | 91 | 1013.4 |
| 20260508034529 | 12 | 19 | 0.0 | 3.2 | 0.00 | 2.95 | 2.95 | 90 | 1013.4 |
| 20260508034004 | 12 | 19 | 0.0 | 3.2 | 0.00 | 2.95 | 2.95 | 90 | 1013.3 |
| 20260508033506 | 12 | 15 | 0.0 | 3.2 | 0.00 | 2.95 | 2.95 | 90 | 1013.3 |
| 20260508033019 | 12 | 335 | 0.0 | 3.2 | 0.00 | 2.95 | 2.95 | 90 | 1013.3 |
| 20260508032508 | 12 | 341 | 0.0 | 3.2 | 0.03 | 2.95 | 2.95 | 90 | 1013.2 |
| 20260508032009 | 12 | 327 | 0.0 | 3.2 | 0.08 | 2.95 | 2.95 | 90 | 1013.2 |
| 20260508030507 | 12 | 351 | 0.0 | 3.2 | 0.10 | 2.95 | 2.95 | 90 | 1013.1 |
| 20260508030026 | 12 | 314 | 0.0 | 3.2 | 0.10 | 2.95 | 2.95 | 90 | 1012.9 |
| 20260508025510 | 12 | 310 | 0.0 | 3.2 | 0.10 | 2.95 | 2.95 | 90 | 1013.1 |
| 20260508025009 | 12 | 335 | 0.0 | 3.2 | 0.10 | 2.95 | 2.95 | 90 | 1013.0 |
| 20260508024527 | 12 | 344 | 0.0 | 3.2 | 0.18 | 2.95 | 2.95 | 89 | 1013.0 |
| 20260508024008 | 13 | 113 | 0.0 | 4.8 | 0.33 | 2.95 | 2.95 | 89 | 1013.2 |
| 20260508023507 | 13 | 113 | 0.0 | 4.8 | 0.51 | 2.95 | 2.95 | 89 | 1013.0 |
| 20260508023016 | 13 | 9 | 1.6 | 4.8 | 0.51 | 2.95 | 2.95 | 89 | 1012.7 |
| 20260508022504 | 13 | 25 | 0.0 | 3.2 | 0.48 | 2.95 | 2.95 | 88 | 1012.8 |
| 20260508022006 | 13 | 14 | 0.0 | 3.2 | 0.43 | 2.90 | 2.90 | 88 | 1012.9 |
| 20260508021006 | 13 | 287 | 0.0 | 3.2 | 0.41 | 2.87 | 2.87 | 87 | 1012.6 |
| 20260508020503 | 13 | 345 | 0.0 | 3.2 | 0.41 | 2.87 | 2.87 | 87 | 1012.4 |
| 20260508020011 | 13 | 296 | 0.0 | 3.2 | 0.41 | 2.87 | 2.87 | 87 | 1012.4 |
| 20260508015503 | 13 | 114 | 0.0 | 4.8 | 0.41 | 2.87 | 2.87 | 87 | 1012.5 |
| 20260508015003 | 13 | 276 | 0.0 | 8.0 | 0.41 | 2.87 | 2.87 | 86 | 1012.3 |
| 20260508014511 | 13 | 227 | 0.0 | 16.1 | 0.33 | 2.79 | 2.79 | 86 | 1011.9 |
| 20260508014004 | 13 | 303 | 4.8 | 16.1 | 0.18 | 2.64 | 2.64 | 85 | 1011.3 |
| 20260508013507 | 13 | 246 | 1.6 | 9.7 | 0.00 | 2.46 | 2.46 | 84 | 1013.4 |
| 20260508012507 | 13 | 44 | 3.2 | 12.9 | 0.00 | 2.46 | 2.46 | 83 | 1010.9 |
| 20260508012007 | 14 | 5 | 3.2 | 9.7 | 0.00 | 2.46 | 2.46 | 84 | 1011.1 |
| 20260508011007 | 14 | 294 | 1.6 | 19.3 | 0.00 | 2.46 | 2.46 | 84 | 1011.0 |
| 20260508010506 | 14 | 297 | 1.6 | 8.0 | 0.00 | 2.46 | 2.46 | 84 | 1011.1 |
| 20260508010004 | 14 | 302 | 1.6 | 19.3 | 0.00 | 2.46 | 2.46 | 83 | 1010.9 |
| 20260508005503 | 14 | 275 | 4.8 | 19.3 | 0.00 | 2.46 | 2.46 | 83 | 1010.6 |
| 20260508005004 | 15 | 360 | 3.2 | 19.3 | 0.00 | 2.46 | 2.46 | 84 | 1010.5 |
| 20260508004509 | 15 | 290 | 3.2 | 12.9 | 0.00 | 2.46 | 2.46 | 84 | 1010.4 |
| 20260508004003 | 15 | 313 | 3.2 | 12.9 | 0.00 | 2.46 | 2.46 | 83 | 1010.9 |
| 20260508003502 | 15 | 5 | 3.2 | 12.9 | 0.00 | 2.46 | 2.46 | 83 | 1010.6 |
| 20260508002506 | 15 | 267 | 0.0 | 11.3 | 0.00 | 2.46 | 2.46 | 83 | 1010.0 |
| 20260508002008 | 15 | 324 | 3.2 | 12.9 | 0.00 | 2.46 | 2.46 | 82 | 1009.9 |
| 20260508001519 | 15 | 333 | 4.8 | 20.9 | 0.00 | 2.46 | 2.46 | 82 | 1009.7 |
| 20260508001004 | 16 | 282 | 3.2 | 20.9 | 0.00 | 2.46 | 2.46 | 82 | 1010.0 |
| 20260508000508 | 16 | 308 | 1.6 | 9.7 | 0.00 | 2.46 | 2.46 | 82 | 1009.8 |
| 20260508000022 | 16 | 51 | 1.6 | 12.9 | 0.00 | 2.46 | 2.46 | 82 | 1009.7 |
| 20260507235513 | 16 | 304 | 3.2 | 19.3 | 0.00 | 2.46 | 2.46 | 82 | 1009.6 |
| 20260507235009 | 16 | 9 | 3.2 | 19.3 | 0.00 | 2.46 | 2.46 | 82 | 1009.4 |
| 20260507234506 | 16 | 290 | 3.2 | 19.3 | 0.00 | 2.46 | 2.46 | 82 | 1009.3 |
| 20260507234003 | 17 | 333 | 3.2 | 12.9 | 0.00 | 2.46 | 2.46 | 81 | 1009.0 |
| 20260507233504 | 17 | 346 | 3.2 | 12.9 | 0.00 | 2.46 | 2.46 | 81 | 1008.9 |
| 20260507232505 | 17 | 229 | 3.2 | 14.5 | 0.00 | 2.46 | 2.46 | 80 | 1008.6 |
| 20260507232005 | 17 | 12 | 6.4 | 14.5 | 0.00 | 2.46 | 2.46 | 80 | 1008.7 |
| 20260507231004 | 18 | 286 | 4.8 | 14.5 | 0.00 | 2.46 | 2.46 | 79 | 1008.6 |
| 20260507230507 | 18 | 327 | 6.4 | 16.1 | 0.00 | 2.46 | 2.46 | 77 | 1008.5 |
| 20260507230020 | 19 | 320 | 1.6 | 16.1 | 0.00 | 2.46 | 2.46 | 77 | 1008.1 |
| 20260507225507 | 20 | 60 | 3.2 | 11.3 | 0.00 | 2.46 | 2.46 | 77 | 1007.9 |
| 20260507225008 | 20 | 351 | 1.6 | 16.1 | 0.00 | 2.46 | 2.46 | 76 | 1007.9 |
| 20260507224525 | 20 | 334 | 4.8 | 16.1 | 0.00 | 2.46 | 2.46 | 75 | 1007.9 |
| 20260507224007 | 21 | 44 | 1.6 | 12.9 | 0.00 | 2.46 | 2.46 | 75 | 1008.1 |
| 20260507223506 | 21 | 12 | 3.2 | 12.9 | 0.00 | 2.46 | 2.46 | 75 | 1008.0 |
| 20260507222501 | 22 | 54 | 4.8 | 16.1 | 0.00 | 2.46 | 2.46 | 74 | 1007.5 |
| 20260507222003 | 23 | 292 | 4.8 | 16.1 | 0.00 | 2.46 | 2.46 | 75 | 1007.7 |
| 20260507221005 | 23 | 13 | 0.0 | 3.2 | 0.00 | 2.46 | 2.46 | 78 | 1007.3 |
| 20260507220504 | 23 | 60 | 0.0 | 3.2 | 0.00 | 2.46 | 2.46 | 78 | 1007.3 |
| 20260507215507 | 23 | 316 | 0.0 | 3.2 | 0.00 | 2.46 | 2.46 | 78 | 1007.3 |
| 20260507215007 | 23 | 300 | 0.0 | 3.2 | 0.00 | 2.46 | 2.46 | 79 | 1007.3 |
| 20260507214525 | 23 | 227 | 0.0 | 3.2 | 0.00 | 2.46 | 2.46 | 79 | 1007.2 |
| 20260507214009 | 23 | 252 | 0.0 | 3.2 | 0.00 | 2.46 | 2.46 | 80 | 1007.3 |
| 20260507213508 | 23 | 59 | 0.0 | 3.2 | 0.00 | 2.46 | 2.46 | 81 | 1007.3 |
| 20260507213024 | 23 | 344 | 0.0 | 3.2 | 0.00 | 2.46 | 2.46 | 81 | 1007.3 |
| 20260507212511 | 23 | 215 | 0.0 | 3.2 | 0.00 | 2.46 | 2.46 | 81 | 1007.5 |
| 20260507212003 | 23 | 248 | 0.0 | 3.2 | 0.00 | 2.46 | 2.46 | 80 | 1007.4 |
| 20260507211003 | 23 | 273 | 0.0 | 4.8 | 0.00 | 2.46 | 2.46 | 81 | 1007.4 |
| 20260507210505 | 23 | 284 | 0.0 | 4.8 | 0.00 | 2.46 | 2.46 | 82 | 1007.4 |
| 20260507210017 | 23 | 15 | 0.0 | 3.2 | 0.00 | 2.46 | 2.46 | 81 | 1007.2 |
| 20260507205508 | 23 | 273 | 0.0 | 3.2 | 0.00 | 2.46 | 2.46 | 81 | 1007.3 |
| 20260507205007 | 23 | 254 | 1.6 | 3.2 | 0.00 | 2.46 | 2.46 | 82 | 1007.2 |
| 20260507204006 | 23 | 306 | 0.0 | 6.4 | 0.00 | 2.46 | 2.46 | 85 | 1007.0 |
| 20260507203507 | 23 | 292 | 1.6 | 6.4 | 0.00 | 2.46 | 2.46 | 85 | 1007.2 |
| 20260507203024 | 22 | 285 | 0.0 | 3.2 | 0.00 | 2.46 | 2.46 | 85 | 1007.2 |
| 20260507202509 | 22 | 5 | 0.0 | 3.2 | 0.00 | 2.46 | 2.46 | 86 | 1007.3 |
| 20260507202010 | 22 | 299 | 0.0 | 3.2 | 0.00 | 2.46 | 2.46 | 87 | 1007.3 |
| 20260507201525 | 22 | 207 | 0.0 | 4.8 | 0.00 | 2.46 | 2.46 | 88 | 1007.4 |
| 20260507201005 | 22 | 352 | 0.0 | 3.2 | 0.00 | 2.46 | 2.46 | 88 | 1007.3 |
| 20260507200503 | 22 | 313 | 0.0 | 3.2 | 0.00 | 2.46 | 2.46 | 89 | 1007.4 |
| 20260507200014 | 22 | 180 | 1.6 | 3.2 | 0.00 | 2.46 | 2.46 | 89 | 1007.3 |
| 20260507195503 | 22 | 304 | 0.0 | 3.2 | 0.00 | 2.46 | 2.46 | 90 | 1007.3 |
| 20260507195007 | 22 | 264 | 0.0 | 3.2 | 0.00 | 2.46 | 2.46 | 91 | 1007.2 |
| 20260507194520 | 22 | 13 | 0.0 | 3.2 | 0.00 | 2.46 | 2.46 | 91 | 1007.2 |
| 20260507194006 | 22 | 235 | 0.0 | 3.2 | 0.00 | 2.46 | 2.46 | 91 | 1007.3 |
| 20260507193509 | 21 | 184 | 0.0 | 4.8 | 0.00 | 2.46 | 2.46 | 91 | 1007.1 |
| 20260507192508 | 21 | 241 | 1.6 | 3.2 | 0.00 | 2.46 | 2.46 | 91 | 1007.1 |
| 20260507192008 | 21 | 248 | 0.0 | 3.2 | 0.00 | 2.46 | 2.46 | 91 | 1007.4 |
| 20260507191526 | 21 | 246 | 0.0 | 3.2 | 0.00 | 2.46 | 2.46 | 91 | 1007.6 |
| 20260507191010 | 21 | 241 | 0.0 | 4.8 | 0.00 | 2.46 | 2.46 | 91 | 1008.2 |
| 20260507190511 | 21 | 235 | 1.6 | 6.4 | 0.00 | 2.46 | 2.46 | 91 | 1008.3 |
| 20260507190026 | 21 | 233 | 1.6 | 6.4 | 0.00 | 2.46 | 2.46 | 91 | 1008.5 |
| 20260507185503 | 21 | 240 | 1.6 | 8.0 | 0.00 | 2.46 | 2.46 | 91 | 1008.2 |
| 20260507185003 | 21 | 179 | 3.2 | 8.0 | 0.00 | 2.46 | 2.46 | 91 | 1008.1 |
| 20260507184007 | 21 | 230 | 0.0 | 4.8 | 0.00 | 2.46 | 2.46 | 91 | 1008.3 |
| 20260507183506 | 21 | 217 | 1.6 | 4.8 | 0.00 | 2.46 | 2.46 | 91 | 1008.5 |
| 20260507182508 | 21 | 225 | 3.2 | 9.7 | 0.00 | 2.46 | 2.46 | 91 | 1008.5 |
| 20260507182011 | 21 | 273 | 3.2 | 9.7 | 0.00 | 2.46 | 2.46 | 91 | 1008.4 |
| 20260507181523 | 21 | 232 | 4.8 | 9.7 | 0.00 | 2.46 | 2.46 | 92 | 1008.4 |
| 20260507181010 | 21 | 233 | 3.2 | 8.0 | 0.00 | 2.46 | 2.46 | 92 | 1008.2 |
| 20260507180508 | 21 | 215 | 4.8 | 8.0 | 0.00 | 2.46 | 2.46 | 93 | 1008.1 |
| 20260507180023 | 21 | 252 | 3.2 | 8.0 | 0.00 | 2.46 | 2.46 | 93 | 1007.8 |
| 20260507175508 | 21 | 218 | 1.6 | 4.8 | 0.00 | 2.46 | 2.46 | 93 | 1007.8 |
| 20260507175009 | 21 | 268 | 3.2 | 12.9 | 0.00 | 2.46 | 2.46 | 93 | 1008.1 |
| 20260507174004 | 21 | 252 | 3.2 | 11.3 | 0.03 | 2.46 | 2.46 | 94 | 1007.9 |
| 20260507173503 | 21 | 244 | 1.6 | 11.3 | 0.05 | 2.46 | 2.46 | 95 | 1007.9 |
| 20260507172507 | 20 | 239 | 3.2 | 6.4 | 0.13 | 2.46 | 2.46 | 94 | 1008.3 |
| 20260507172007 | 20 | 181 | 1.6 | 6.4 | 0.18 | 2.46 | 2.46 | 94 | 1008.3 |
| 20260507171522 | 20 | 187 | 1.6 | 9.7 | 0.23 | 2.46 | 2.46 | 94 | 1008.5 |
| 20260507171007 | 20 | 184 | 3.2 | 9.7 | 0.28 | 2.46 | 2.46 | 94 | 1008.5 |
| 20260507170511 | 20 | 162 | 1.6 | 8.0 | 0.36 | 2.46 | 2.46 | 94 | 1008.5 |
| 20260507170024 | 20 | 162 | 1.6 | 14.5 | 0.41 | 2.46 | 2.46 | 94 | 1008.6 |
| 20260507165509 | 20 | 181 | 3.2 | 9.7 | 0.46 | 2.46 | 2.46 | 94 | 1008.6 |
| 20260507165010 | 20 | 127 | 1.6 | 3.2 | 0.51 | 2.46 | 2.46 | 94 | 1008.9 |
| 20260507164526 | 20 | 165 | 0.0 | 3.2 | 0.53 | 2.44 | 2.44 | 94 | 1009.1 |
| 20260507164012 | 19 | 188 | 0.0 | 6.4 | 0.56 | 2.44 | 2.44 | 93 | 1009.4 |
| 20260507163508 | 20 | 236 | 0.0 | 6.4 | 0.56 | 2.41 | 2.41 | 93 | 1009.6 |
| 20260507162507 | 19 | 138 | 0.0 | 3.2 | 0.53 | 2.34 | 2.34 | 93 | 1009.6 |
| 20260507162008 | 19 | 242 | 0.0 | 3.2 | 0.51 | 2.29 | 2.29 | 93 | 1010.0 |
| 20260507161523 | 19 | 236 | 1.6 | 3.2 | 0.48 | 2.24 | 2.24 | 93 | 1010.2 |
| 20260507161006 | 20 | 250 | 1.6 | 3.2 | 0.46 | 2.18 | 2.18 | 93 | 1010.3 |
| 20260507160508 | 19 | 230 | 1.6 | 6.4 | 0.48 | 2.11 | 2.11 | 93 | 1010.4 |
| 20260507155510 | 20 | 227 | 1.6 | 4.8 | 0.56 | 2.01 | 2.01 | 93 | 1010.5 |
| 20260507155007 | 20 | 256 | 1.6 | 3.2 | 0.58 | 1.96 | 1.96 | 93 | 1010.5 |
| 20260507154524 | 20 | 257 | 0.0 | 3.2 | 0.61 | 1.91 | 1.91 | 93 | 1010.4 |
| 20260507154011 | 20 | 257 | 0.0 | 4.8 | 0.66 | 1.88 | 1.88 | 93 | 1010.4 |
| 20260507153510 | 20 | 246 | 1.6 | 4.8 | 0.71 | 1.85 | 1.85 | 93 | 1010.2 |
| 20260507153025 | 20 | 248 | 1.6 | 4.8 | 0.76 | 1.83 | 1.83 | 93 | 1010.1 |
| 20260507152512 | 20 | 223 | 1.6 | 3.2 | 0.79 | 1.80 | 1.80 | 93 | 1010.0 |
| 20260507152007 | 20 | 244 | 0.0 | 3.2 | 0.81 | 1.78 | 1.78 | 93 | 1010.0 |
| 20260507151007 | 20 | 233 | 1.6 | 3.2 | 0.84 | 1.73 | 1.73 | 93 | 1010.0 |
| 20260507150511 | 20 | 236 | 0.0 | 3.2 | 0.74 | 1.63 | 1.63 | 93 | 1010.0 |
| 20260507145513 | 20 | 205 | 0.0 | 3.2 | 0.58 | 1.45 | 1.45 | 93 | 1010.1 |
| 20260507145007 | 20 | 240 | 0.0 | 3.2 | 0.51 | 1.37 | 1.37 | 93 | 1010.2 |
| 20260507144536 | 20 | 238 | 0.0 | 3.2 | 0.43 | 1.30 | 1.30 | 93 | 1010.3 |
| 20260507144009 | 20 | 254 | 0.0 | 3.2 | 0.36 | 1.22 | 1.22 | 93 | 1010.5 |
| 20260507143506 | 20 | 203 | 0.0 | 3.2 | 0.28 | 1.14 | 1.14 | 93 | 1010.5 |
| 20260507143026 | 20 | 134 | 0.0 | 3.2 | 0.20 | 1.07 | 1.07 | 93 | 1010.6 |
| 20260507142509 | 20 | 209 | 0.0 | 3.2 | 0.15 | 1.02 | 1.02 | 93 | 1010.7 |
| 20260507142019 | 20 | 185 | 0.0 | 1.6 | 0.10 | 0.97 | 0.97 | 93 | 1010.6 |
| 20260507141528 | 20 | 225 | 0.0 | 3.2 | 0.08 | 0.94 | 0.94 | 93 | 1010.6 |
| 20260507141006 | 20 | 238 | 0.0 | 3.2 | 0.03 | 0.89 | 0.89 | 93 | 1010.4 |
| 20260507140508 | 20 | 245 | 0.0 | 3.2 | 0.03 | 0.89 | 0.89 | 93 | 1010.2 |
| 20260507140019 | 20 | 284 | 0.0 | 4.8 | 0.00 | 0.86 | 0.86 | 93 | 1010.1 |
| 20260507135508 | 20 | 244 | 0.0 | 4.8 | 0.00 | 0.86 | 0.86 | 93 | 1010.1 |
| 20260507135003 | 20 | 235 | 1.6 | 6.4 | 0.00 | 0.86 | 0.86 | 93 | 1009.9 |
| 20260507134007 | 20 | 232 | 0.0 | 4.8 | 0.00 | 0.86 | 0.86 | 93 | 1009.8 |
| 20260507133504 | 20 | 244 | 1.6 | 4.8 | 0.00 | 0.86 | 0.86 | 93 | 1009.8 |
| 20260507132504 | 20 | 239 | 0.0 | 3.2 | 0.00 | 0.86 | 0.86 | 93 | 1009.9 |
| 20260507132005 | 20 | 230 | 0.0 | 3.2 | 0.00 | 0.86 | 0.86 | 93 | 1010.1 |
| 20260507131009 | 20 | 193 | 0.0 | 3.2 | 0.00 | 0.86 | 0.86 | 93 | 1009.7 |
| 20260507130508 | 20 | 242 | 1.6 | 3.2 | 0.03 | 0.86 | 0.86 | 93 | 1009.6 |
| 20260507130018 | 20 | 213 | 1.6 | 3.2 | 0.03 | 0.86 | 0.86 | 93 | 1009.6 |
| 20260507125508 | 20 | 181 | 0.0 | 4.8 | 0.05 | 0.86 | 0.86 | 93 | 1009.7 |
| 20260507125008 | 20 | 190 | 0.0 | 4.8 | 0.05 | 0.86 | 0.86 | 93 | 1009.7 |
| 20260507124525 | 20 | 231 | 1.6 | 3.2 | 0.08 | 0.86 | 0.86 | 93 | 1009.9 |
| 20260507124003 | 20 | 229 | 1.6 | 3.2 | 0.08 | 0.86 | 0.86 | 93 | 1009.9 |
| 20260507123503 | 20 | 184 | 0.0 | 3.2 | 0.08 | 0.86 | 0.86 | 93 | 1009.8 |
| 20260507122504 | 19 | 206 | 1.6 | 9.7 | 0.10 | 0.86 | 0.86 | 93 | 1010.0 |
| 20260507122006 | 19 | 238 | 1.6 | 9.7 | 0.13 | 0.86 | 0.86 | 93 | 1010.1 |
| 20260507121007 | 19 | 150 | 1.6 | 9.7 | 0.15 | 0.86 | 0.86 | 93 | 1010.8 |
| 20260507120505 | 19 | 268 | 1.6 | 9.7 | 0.15 | 0.84 | 0.84 | 93 | 1011.0 |
| 20260507120019 | 19 | 203 | 3.2 | 11.3 | 0.15 | 0.84 | 0.84 | 93 | 1010.6 |
| 20260507115506 | 19 | 153 | 3.2 | 14.5 | 0.15 | 0.81 | 0.81 | 93 | 1010.6 |
| 20260507115010 | 19 | 195 | 6.4 | 14.5 | 0.15 | 0.81 | 0.81 | 93 | 1010.7 |
| 20260507114521 | 19 | 165 | 4.8 | 11.3 | 0.13 | 0.79 | 0.79 | 93 | 1010.9 |
| 20260507114008 | 19 | 182 | 4.8 | 14.5 | 0.15 | 0.79 | 0.79 | 93 | 1011.0 |
| 20260507113508 | 19 | 191 | 6.4 | 16.1 | 0.18 | 0.79 | 0.79 | 93 | 1011.1 |
| 20260507113023 | 19 | 221 | 6.4 | 17.7 | 0.18 | 0.76 | 0.76 | 93 | 1011.1 |
| 20260507112506 | 19 | 193 | 3.2 | 19.3 | 0.18 | 0.76 | 0.76 | 92 | 1011.1 |
| 20260507112004 | 20 | 226 | 6.4 | 19.3 | 0.20 | 0.74 | 0.74 | 92 | 1011.2 |
| 20260507111004 | 19 | 252 | 4.8 | 22.5 | 0.30 | 0.71 | 0.71 | 92 | 1011.3 |
| 20260507110503 | 19 | 165 | 3.2 | 22.5 | 0.36 | 0.69 | 0.69 | 92 | 1011.3 |
| 20260507110018 | 19 | 221 | 6.4 | 14.5 | 0.41 | 0.69 | 0.69 | 92 | 1011.4 |
| 20260507105505 | 19 | 151 | 3.2 | 9.7 | 0.41 | 0.66 | 0.66 | 92 | 1011.3 |
| 20260507105006 | 19 | 163 | 3.2 | 8.0 | 0.43 | 0.66 | 0.66 | 92 | 1011.4 |
| 20260507104523 | 19 | 161 | 1.6 | 12.9 | 0.46 | 0.66 | 0.66 | 92 | 1011.5 |
| 20260507104009 | 19 | 232 | 3.2 | 17.7 | 0.43 | 0.64 | 0.64 | 92 | 1011.5 |
| 20260507103508 | 19 | 186 | 3.2 | 17.7 | 0.41 | 0.61 | 0.61 | 92 | 1011.6 |
| 20260507103025 | 19 | 207 | 3.2 | 9.7 | 0.38 | 0.58 | 0.58 | 91 | 1011.6 |
| 20260507102510 | 19 | 151 | 4.8 | 9.7 | 0.41 | 0.58 | 0.58 | 91 | 1011.6 |
| 20260507102011 | 19 | 175 | 3.2 | 9.7 | 0.36 | 0.53 | 0.53 | 91 | 1011.5 |
| 20260507101510 | 19 | 179 | 3.2 | 8.0 | 0.30 | 0.48 | 0.48 | 91 | 1011.7 |
| 20260507101004 | 19 | 169 | 1.6 | 3.2 | 0.23 | 0.41 | 0.41 | 91 | 1011.6 |
| 20260507100504 | 19 | 187 | 0.0 | 3.2 | 0.15 | 0.33 | 0.33 | 90 | 1011.8 |
| 20260507100019 | 20 | 180 | 0.0 | 3.2 | 0.10 | 0.28 | 0.28 | 90 | 1011.6 |
| 20260507095505 | 20 | 163 | 1.6 | 4.8 | 0.08 | 0.25 | 0.25 | 90 | 1011.5 |
| 20260507095008 | 20 | 180 | 0.0 | 4.8 | 0.08 | 0.23 | 0.23 | 90 | 1011.4 |
| 20260507094524 | 20 | 167 | 0.0 | 4.8 | 0.05 | 0.20 | 0.20 | 90 | 1011.5 |
| 20260507094007 | 20 | 184 | 0.0 | 3.2 | 0.08 | 0.20 | 0.20 | 90 | 1011.5 |
| 20260507093507 | 20 | 164 | 0.0 | 3.2 | 0.10 | 0.20 | 0.20 | 90 | 1011.5 |
| 20260507093032 | 20 | 163 | 0.0 | 3.2 | 0.15 | 0.20 | 0.20 | 90 | 1011.4 |
| 20260507092508 | 20 | 160 | 0.0 | 3.2 | 0.13 | 0.18 | 0.18 | 90 | 1011.3 |
| 20260507092010 | 20 | 222 | 0.0 | 3.2 | 0.13 | 0.18 | 0.18 | 90 | 1011.4 |
| 20260507091530 | 20 | 151 | 0.0 | 3.2 | 0.13 | 0.18 | 0.18 | 89 | 1011.5 |
| 20260507091014 | 20 | 159 | 0.0 | 3.2 | 0.13 | 0.18 | 0.18 | 89 | 1011.5 |
| 20260507090508 | 20 | 135 | 0.0 | 3.2 | 0.13 | 0.18 | 0.18 | 89 | 1011.6 |
| 20260507090017 | 20 | 133 | 0.0 | 3.2 | 0.13 | 0.18 | 0.18 | 89 | 1011.6 |
| 20260507085505 | 20 | 133 | 0.0 | 3.2 | 0.13 | 0.18 | 0.18 | 89 | 1011.6 |
| 20260507085006 | 20 | 134 | 0.0 | 1.6 | 0.10 | 0.15 | 0.15 | 88 | 1011.8 |
| 20260507084523 | 20 | 213 | 0.0 | 0.0 | 0.10 | 0.15 | 0.15 | 88 | 1012.0 |
| 20260507084007 | 20 | 213 | 0.0 | 3.2 | 0.08 | 0.13 | 0.13 | 88 | 1012.0 |
| 20260507083506 | 20 | 213 | 0.0 | 3.2 | 0.05 | 0.10 | 0.10 | 88 | 1012.0 |
| 20260507083023 | 20 | 211 | 0.0 | 3.2 | 0.00 | 0.05 | 0.05 | 88 | 1012.3 |
| 20260507082508 | 20 | 212 | 0.0 | 3.2 | 0.00 | 0.05 | 0.05 | 87 | 1012.2 |
| 20260507082010 | 20 | 174 | 0.0 | 0.0 | 0.03 | 0.05 | 0.05 | 87 | 1012.2 |
| 20260507081526 | 20 | 174 | 0.0 | 0.0 | 0.03 | 0.05 | 0.05 | 87 | 1012.3 |
| 20260507081006 | 20 | 174 | 0.0 | 0.0 | 0.03 | 0.05 | 0.05 | 87 | 1012.1 |
| 20260507080511 | 20 | 174 | 0.0 | 0.0 | 0.03 | 0.05 | 0.05 | 87 | 1011.7 |
| 20260507080028 | 20 | 174 | 0.0 | 3.2 | 0.03 | 0.05 | 0.05 | 87 | 1011.4 |
| 20260507075508 | 20 | 173 | 0.0 | 4.8 | 0.03 | 0.05 | 0.05 | 87 | 1011.4 |
| 20260507075004 | 20 | 167 | 0.0 | 4.8 | 0.03 | 0.05 | 0.05 | 86 | 1011.4 |
| 20260507074515 | 20 | 166 | 0.0 | 0.0 | 0.03 | 0.05 | 0.05 | 86 | 1011.4 |
| 20260507074007 | 20 | 166 | 0.0 | 0.0 | 0.03 | 0.05 | 0.05 | 86 | 1011.3 |
| 20260507073507 | 20 | 167 | 0.0 | 1.6 | 0.03 | 0.05 | 0.05 | 86 | 1011.4 |
| 20260507073019 | 20 | 167 | 0.0 | 1.6 | 0.03 | 0.05 | 0.05 | 86 | 1011.7 |
| 20260507072506 | 20 | 211 | 0.0 | 0.0 | 0.03 | 0.05 | 0.05 | 86 | 1011.7 |
| 20260507072008 | 20 | 210 | 0.0 | 0.0 | 0.00 | 0.03 | 0.03 | 86 | 1011.6 |
| 20260507071523 | 20 | 210 | 0.0 | 0.0 | 0.00 | 0.03 | 0.03 | 86 | 1011.6 |
| 20260507071010 | 20 | 210 | 0.0 | 0.0 | 0.00 | 0.03 | 0.03 | 86 | 1011.8 |
| 20260507070510 | 20 | 211 | 0.0 | 0.0 | 0.00 | 0.03 | 0.03 | 86 | 1011.8 |
| 20260507070026 | 20 | 210 | 0.0 | 3.2 | 0.00 | 0.03 | 0.03 | 85 | 1011.9 |
| 20260507065511 | 20 | 211 | 0.0 | 3.2 | 0.00 | 0.03 | 0.03 | 85 | 1011.8 |
| 20260507065010 | 20 | 173 | 0.0 | 3.2 | 0.00 | 0.03 | 0.03 | 85 | 1011.5 |
| 20260507064525 | 20 | 180 | 0.0 | 3.2 | 0.00 | 0.03 | 0.03 | 85 | 1011.4 |
| 20260507064009 | 20 | 184 | 0.0 | 3.2 | 0.00 | 0.03 | 0.03 | 84 | 1011.7 |
| 20260507063505 | 20 | 198 | 0.0 | 3.2 | 0.00 | 0.03 | 0.03 | 84 | 1011.7 |
| 20260507063019 | 20 | 197 | 0.0 | 3.2 | 0.00 | 0.03 | 0.03 | 84 | 1011.7 |
| 20260507062506 | 20 | 174 | 0.0 | 6.4 | 0.00 | 0.03 | 0.03 | 84 | 1011.7 |
| 20260507062007 | 20 | 211 | 0.0 | 6.4 | 0.00 | 0.03 | 0.03 | 84 | 1011.8 |
| 20260507061521 | 20 | 170 | 0.0 | 3.2 | 0.00 | 0.03 | 0.03 | 84 | 1012.0 |
| 20260507061010 | 20 | 186 | 1.6 | 4.8 | 0.00 | 0.03 | 0.03 | 83 | 1011.9 |
| 20260507060507 | 21 | 221 | 1.6 | 4.8 | 0.00 | 0.03 | 0.03 | 83 | 1011.8 |
| 20260507060033 | 21 | 140 | 1.6 | 4.8 | 0.00 | 0.03 | 0.03 | 82 | 1012.1 |
| 20260507055517 | 21 | 226 | 1.6 | 3.2 | 0.00 | 0.03 | 0.03 | 82 | 1012.1 |
| 20260507055008 | 21 | 164 | 1.6 | 3.2 | 0.00 | 0.03 | 0.03 | 82 | 1012.4 |
| 20260507054536 | 21 | 184 | 1.6 | 3.2 | 0.00 | 0.03 | 0.03 | 81 | 1012.3 |
| 20260507054007 | 21 | 215 | 1.6 | 3.2 | 0.03 | 0.03 | 0.03 | 81 | 1012.4 |
| 20260507053513 | 21 | 161 | 1.6 | 4.8 | 0.03 | 0.03 | 0.03 | 81 | 1012.4 |
| 20260507053026 | 21 | 229 | 0.0 | 4.8 | 0.03 | 0.03 | 0.03 | 80 | 1012.7 |
| 20260507052506 | 21 | 182 | 1.6 | 9.7 | 0.03 | 0.03 | 0.03 | 80 | 1012.4 |
| 20260507052010 | 21 | 228 | 1.6 | 9.7 | 0.03 | 0.03 | 0.03 | 80 | 1012.6 |
| 20260507051008 | 21 | 246 | 1.6 | 8.0 | 0.03 | 0.03 | 0.03 | 79 | 1013.2 |
| 20260507050505 | 22 | 174 | 1.6 | 3.2 | 0.03 | 0.03 | 0.03 | 78 | 1013.3 |